Time;durP1;ratioP1;P1;durP2;ratioP2;P2;SDS_P1;SDS_P2;PMS_P1;PMS_P2;Temp;Humidity;BMP_temperature;BMP_pressure;BME280_temperature;BME280_humidity;BME280_pressure;Samples;Min_cycle;Max_cycle;Signal;HPM_P1;HPM_P2
2020/12/05 00:00:13;;;;;;;24.47;20.50;;;6.70;36.90;;;;;;5054415;28;20609;-65
2020/12/05 00:02:39;;;;;;;22.23;19.30;;;6.60;36.60;;;;;;5053307;28;20226;-65
2020/12/05 00:05:04;;;;;;;27.93;22.00;;;6.60;37.00;;;;;;5054910;28;20234;-65
2020/12/05 00:07:30;;;;;;;34.77;27.20;;;6.70;36.60;;;;;;5052141;28;20231;-65
2020/12/05 00:09:55;;;;;;;24.53;19.70;;;6.70;36.40;;;;;;5055450;28;20231;-65
2020/12/05 00:12:21;;;;;;;27.53;22.33;;;6.80;35.90;;;;;;5052830;28;20583;-65
2020/12/05 00:14:46;;;;;;;23.33;20.50;;;6.90;35.50;;;;;;5054935;28;20230;-65
2020/12/05 00:17:12;;;;;;;23.90;17.47;;;6.90;35.60;;;;;;5052437;28;20226;-66
2020/12/05 00:19:37;;;;;;;23.67;19.23;;;7.00;34.70;;;;;;5054940;28;21062;-67
2020/12/05 00:22:03;;;;;;;25.63;22.60;;;6.90;35.30;;;;;;5052874;28;20226;-65
2020/12/05 00:24:28;;;;;;;21.67;19.00;;;7.00;35.90;;;;;;5060675;28;20299;-66
2020/12/05 00:26:54;;;;;;;20.50;17.90;;;7.10;36.10;;;;;;5071178;28;20217;-64
2020/12/05 00:29:20;;;;;;;21.97;19.00;;;7.00;35.80;;;;;;5070178;28;20554;-64
2020/12/05 00:31:51;;;;;;;20.33;18.13;;;7.00;37.30;;;;;;5069807;28;20503;-65
2020/12/05 00:34:17;;;;;;;23.47;19.13;;;7.00;38.30;;;;;;5069862;28;20436;-65
2020/12/05 00:36:43;;;;;;;23.30;19.30;;;7.10;36.60;;;;;;5069752;28;20894;-65
2020/12/05 00:39:09;;;;;;;24.17;20.20;;;7.00;36.10;;;;;;5069555;28;20513;-65
2020/12/05 00:41:34;;;;;;;23.53;19.97;;;7.00;38.20;;;;;;5069699;28;20568;-65
2020/12/05 00:44:00;;;;;;;24.37;20.23;;;7.00;37.50;;;;;;5070284;28;20202;-65
2020/12/05 00:46:25;;;;;;;23.83;19.13;;;7.00;37.50;;;;;;5071129;28;20179;-65
2020/12/05 00:48:51;;;;;;;23.20;19.20;;;6.90;38.00;;;;;;5070911;28;20198;-65
2020/12/05 00:51:16;;;;;;;23.50;19.60;;;7.00;37.90;;;;;;5070915;28;20199;-65
2020/12/05 00:53:42;;;;;;;22.13;18.40;;;6.80;37.70;;;;;;5071176;28;20171;-65
2020/12/05 00:56:07;;;;;;;24.10;20.67;;;6.80;38.60;;;;;;5070991;28;20175;-65
2020/12/05 00:58:36;;;;;;;24.30;20.07;;;6.60;39.80;;;;;;5070834;28;20760;-65
2020/12/05 01:01:04;;;;;;;24.23;19.80;;;6.80;39.90;;;;;;5070788;28;20172;-65
2020/12/05 01:03:30;;;;;;;22.53;20.10;;;6.80;40.00;;;;;;5070897;28;20441;-65
2020/12/05 01:05:55;;;;;;;22.50;19.47;;;6.80;38.60;;;;;;5070834;28;20440;-65
2020/12/05 01:08:21;;;;;;;24.13;21.63;;;7.00;38.60;;;;;;5070780;28;20764;-66
2020/12/05 01:10:46;;;;;;;24.00;19.60;;;7.10;38.80;;;;;;5070829;28;20175;-66
2020/12/05 01:13:12;;;;;;;22.20;19.70;;;7.10;39.10;;;;;;5070898;28;20256;-64
2020/12/05 01:15:37;;;;;;;25.00;20.27;;;7.00;39.00;;;;;;5070676;28;20171;-65
2020/12/05 01:18:03;;;;;;;25.00;20.00;;;6.90;39.70;;;;;;5071781;28;20175;-65
2020/12/05 01:20:28;;;;;;;24.23;20.20;;;6.80;39.90;;;;;;5074807;28;20182;-65
2020/12/05 01:22:55;;;;;;;20.60;18.40;;;6.70;40.40;;;;;;5074877;28;20230;-65
2020/12/05 01:25:20;;;;;;;22.97;20.23;;;6.70;40.30;;;;;;5075109;28;20175;-64
2020/12/05 01:27:46;;;;;;;19.90;17.50;;;6.70;41.20;;;;;;5074598;28;20860;-65
2020/12/05 01:30:11;;;;;;;23.70;19.57;;;6.80;40.80;;;;;;5075317;28;20167;-66
2020/12/05 01:32:37;;;;;;;20.17;18.07;;;6.70;41.30;;;;;;5074858;28;20504;-65
2020/12/05 01:35:03;;;;;;;22.00;19.80;;;6.90;41.10;;;;;;5074793;28;20227;-66
2020/12/05 01:37:29;;;;;;;23.00;19.60;;;6.90;41.00;;;;;;5074620;28;20498;-65
2020/12/05 01:39:54;;;;;;;22.07;19.27;;;6.90;41.20;;;;;;5074804;28;20168;-65
2020/12/05 01:42:19;;;;;;;24.10;19.10;;;7.00;41.70;;;;;;5074638;28;20202;-65
2020/12/05 01:44:45;;;;;;;18.03;16.03;;;7.00;42.10;;;;;;5074870;28;20446;-65
2020/12/05 01:47:12;;;;;;;22.80;19.67;;;7.00;42.70;;;;;;5074581;28;20183;-65
2020/12/05 01:49:38;;;;;;;19.00;15.83;;;6.90;43.80;;;;;;5074529;28;20539;-65
2020/12/05 01:52:04;;;;;;;18.97;16.97;;;7.00;44.20;;;;;;5074455;28;20437;-65
2020/12/05 01:54:30;;;;;;;20.93;18.47;;;7.10;45.50;;;;;;5074315;28;20180;-65
2020/12/05 01:57:05;;;;;;;20.73;18.50;;;7.20;46.20;;;;;;5074621;28;20421;-65
2020/12/05 01:59:31;;;;;;;24.93;20.30;;;7.20;44.70;;;;;;5074225;28;20559;-65
2020/12/05 02:02:00;;;;;;;22.70;19.93;;;7.20;44.20;;;;;;5073985;28;20756;-65
2020/12/05 02:04:30;;;;;;;22.43;20.07;;;7.20;44.10;;;;;;5074076;28;20427;-65
2020/12/05 02:07:28;;;;;;;22.90;20.13;;;7.30;43.90;;;;;;5074108;28;20464;-65
2020/12/05 02:09:56;;;;;;;18.73;16.80;;;7.30;45.20;;;;;;5073975;28;20628;-65
2020/12/05 02:12:37;;;;;;;20.50;17.67;;;7.30;45.20;;;;;;5073721;28;20444;-65
2020/12/05 02:15:12;;;;;;;20.40;16.97;;;7.30;44.80;;;;;;5074096;28;20503;-65
2020/12/05 02:17:42;;;;;;;18.67;16.77;;;7.30;44.40;;;;;;5073593;28;20401;-66
2020/12/05 02:20:09;;;;;;;20.37;17.40;;;7.30;44.80;;;;;;5073809;28;20413;-66
2020/12/05 02:22:43;;;;;;;17.30;15.60;;;7.20;44.40;;;;;;5073572;28;20420;-66
2020/12/05 02:25:11;;;;;;;13.83;12.10;;;7.30;44.50;;;;;;5073661;28;20417;-65
2020/12/05 02:27:37;;;;;;;10.20;9.33;;;7.10;44.50;;;;;;5073525;28;20457;-66
2020/12/05 02:30:04;;;;;;;10.47;9.37;;;7.10;43.90;;;;;;5073004;28;20413;-66
2020/12/05 02:32:29;;;;;;;11.00;10.03;;;6.90;44.90;;;;;;5073448;28;20954;-65
2020/12/05 02:34:55;;;;;;;13.30;12.00;;;6.80;45.70;;;;;;5073583;28;20402;-65
2020/12/05 02:37:24;;;;;;;12.77;11.43;;;6.90;45.10;;;;;;5073212;28;20179;-66
2020/12/05 02:39:51;;;;;;;11.93;10.73;;;7.10;45.10;;;;;;5073686;28;20183;-65
2020/12/05 02:42:16;;;;;;;11.30;10.30;;;6.90;44.50;;;;;;5073474;28;20445;-65
2020/12/05 02:44:51;;;;;;;11.43;10.33;;;6.70;45.30;;;;;;5073480;28;20908;-65
2020/12/05 02:47:17;;;;;;;11.30;10.30;;;6.70;44.90;;;;;;5073118;28;20167;-65
2020/12/05 02:49:43;;;;;;;12.00;10.80;;;6.70;46.20;;;;;;5073360;28;20417;-64
2020/12/05 02:52:09;;;;;;;11.07;10.07;;;6.50;46.70;;;;;;5073225;28;20515;-64
2020/12/05 02:54:35;;;;;;;11.50;10.40;;;6.60;46.30;;;;;;5073276;28;20959;-66
2020/12/05 02:57:01;;;;;;;11.50;10.40;;;6.60;46.20;;;;;;5073251;28;20175;-66
2020/12/05 02:59:27;;;;;;;12.67;11.40;;;6.70;47.30;;;;;;5073112;28;20183;-66
2020/12/05 03:01:53;;;;;;;12.10;10.90;;;6.60;46.80;;;;;;5073128;28;20422;-66
2020/12/05 03:04:18;;;;;;;11.17;10.20;;;6.60;46.20;;;;;;5073165;28;20823;-65
2020/12/05 03:06:44;;;;;;;11.77;10.67;;;6.60;46.80;;;;;;5073080;28;20181;-65
2020/12/05 03:09:09;;;;;;;12.40;11.20;;;6.50;46.60;;;;;;5072902;28;20260;-65
2020/12/05 03:11:35;;;;;;;11.60;10.50;;;6.50;45.80;;;;;;5073150;28;20191;-65
2020/12/05 03:14:00;;;;;;;12.33;11.13;;;6.30;47.30;;;;;;5073074;28;20171;-65
2020/12/05 03:16:26;;;;;;;12.23;11.07;;;6.30;47.00;;;;;;5072777;28;20176;-65
2020/12/05 03:18:51;;;;;;;12.10;11.00;;;6.30;47.30;;;;;;5072445;28;20584;-65
2020/12/05 03:21:17;;;;;;;12.20;11.00;;;6.30;45.70;;;;;;5072506;28;20198;-65
2020/12/05 03:23:45;;;;;;;10.83;9.83;;;6.00;47.70;;;;;;5072472;28;20198;-65
2020/12/05 03:26:12;;;;;;;15.43;11.43;;;6.00;48.00;;;;;;5072805;28;20174;-65
2020/12/05 03:28:38;;;;;;;13.07;11.80;;;6.00;48.70;;;;;;5072259;28;20487;-66
2020/12/05 03:31:04;;;;;;;11.63;10.63;;;6.20;49.20;;;;;;5072412;28;20454;-66
2020/12/05 03:33:31;;;;;;;11.37;10.37;;;6.40;48.80;;;;;;5072388;28;20393;-66
2020/12/05 03:35:56;;;;;;;11.43;10.40;;;6.50;48.00;;;;;;5072401;28;20174;-66
2020/12/05 03:38:22;;;;;;;11.97;10.80;;;6.40;46.00;;;;;;5072214;28;21119;-65
2020/12/05 03:40:47;;;;;;;11.90;10.93;;;6.10;47.30;;;;;;5071919;28;20193;-65
2020/12/05 03:43:12;;;;;;;9.17;8.37;;;6.20;47.70;;;;;;5071434;28;20191;-65
2020/12/05 03:45:38;;;;;;;11.83;10.70;;;6.30;46.90;;;;;;5072172;28;20201;-65
2020/12/05 03:48:04;;;;;;;10.60;9.67;;;6.40;46.80;;;;;;5071827;28;20203;-65
2020/12/05 03:50:29;;;;;;;11.00;10.10;;;6.40;46.70;;;;;;5072007;28;20603;-65
2020/12/05 03:52:55;;;;;;;9.63;8.83;;;6.40;46.50;;;;;;5070880;28;20217;-65
2020/12/05 03:55:21;;;;;;;11.60;10.70;;;6.20;46.80;;;;;;5072033;28;20163;-65
2020/12/05 03:57:46;;;;;;;11.27;10.17;;;6.40;46.80;;;;;;5072045;28;20178;-66
2020/12/05 04:00:12;;;;;;;11.13;10.17;;;6.30;46.80;;;;;;5071980;28;20704;-66
2020/12/05 04:02:37;;;;;;;11.13;10.10;;;6.20;46.40;;;;;;5071778;28;20669;-66
2020/12/05 04:05:03;;;;;;;12.07;10.87;;;6.10;47.50;;;;;;5071665;28;20190;-65
2020/12/05 04:07:29;;;;;;;11.70;10.60;;;6.00;49.00;;;;;;5071477;28;20198;-65
2020/12/05 04:09:54;;;;;;;10.00;9.07;;;6.10;47.70;;;;;;5071728;28;20432;-65
2020/12/05 04:12:20;;;;;;;9.70;8.80;;;6.20;46.80;;;;;;5071854;28;20314;-65
2020/12/05 04:14:46;;;;;;;10.47;9.50;;;6.20;46.90;;;;;;5071705;28;20210;-66
2020/12/05 04:17:11;;;;;;;11.20;10.17;;;6.30;47.20;;;;;;5071292;28;20173;-65
2020/12/05 04:19:37;;;;;;;10.53;9.60;;;6.30;47.00;;;;;;5071563;28;20174;-65
2020/12/05 04:22:02;;;;;;;10.90;9.90;;;6.40;46.20;;;;;;5071532;28;20701;-65
2020/12/05 04:24:28;;;;;;;10.90;10.00;;;6.40;46.60;;;;;;5071312;28;20260;-65
2020/12/05 04:26:54;;;;;;;10.57;9.57;;;6.30;47.00;;;;;;5071431;28;20231;-65
2020/12/05 04:29:20;;;;;;;10.20;9.30;;;6.10;47.30;;;;;;5071155;28;20227;-65
2020/12/05 04:31:45;;;;;;;9.80;8.97;;;6.20;47.80;;;;;;5071198;28;20439;-65
2020/12/05 04:34:11;;;;;;;10.07;9.17;;;6.50;46.50;;;;;;5071235;28;20168;-65
2020/12/05 04:36:36;;;;;;;9.80;8.97;;;6.10;46.70;;;;;;5071231;28;20170;-65
2020/12/05 04:39:02;;;;;;;9.67;8.77;;;6.20;46.80;;;;;;5071027;28;20169;-65
2020/12/05 04:41:28;;;;;;;9.73;8.93;;;6.40;46.10;;;;;;5071096;28;20194;-65
2020/12/05 04:43:54;;;;;;;9.23;8.43;;;6.20;46.30;;;;;;5071098;28;20419;-65
2020/12/05 04:46:20;;;;;;;8.93;8.13;;;6.30;46.60;;;;;;5071013;28;20175;-64
2020/12/05 04:48:47;;;;;;;8.63;7.93;;;6.30;46.70;;;;;;5070712;28;20201;-65
2020/12/05 04:51:16;;;;;;;8.53;7.73;;;6.50;46.00;;;;;;5071062;28;20443;-65
2020/12/05 04:53:45;;;;;;;8.43;7.73;;;6.60;45.80;;;;;;5070828;28;20410;-65
2020/12/05 04:56:14;;;;;;;8.30;7.70;;;6.60;45.30;;;;;;5071328;28;20463;-65
2020/12/05 04:58:46;;;;;;;9.07;8.27;;;6.50;47.10;;;;;;5070745;28;20792;-65
2020/12/05 05:01:18;;;;;;;8.80;8.10;;;6.70;46.20;;;;;;5070809;28;20811;-65
2020/12/05 05:03:44;;;;;;;8.23;7.53;;;6.70;45.10;;;;;;5070876;28;20405;-65
2020/12/05 05:06:18;;;;;;;8.90;8.00;;;6.80;44.70;;;;;;5071005;28;20409;-65
2020/12/05 05:08:44;;;;;;;8.37;7.57;;;6.60;44.70;;;;;;5070556;28;20575;-65
2020/12/05 05:11:12;;;;;;;9.13;8.33;;;6.50;45.70;;;;;;5070640;28;20517;-65
2020/12/05 05:13:48;;;;;;;9.43;8.43;;;6.30;46.10;;;;;;5070741;28;20179;-65
2020/12/05 05:16:15;;;;;;;8.50;7.80;;;6.70;46.30;;;;;;5071164;28;20433;-65
2020/12/05 05:18:40;;;;;;;8.33;7.67;;;6.40;46.60;;;;;;5070705;28;20431;-66
2020/12/05 05:21:06;;;;;;;8.80;8.10;;;6.40;45.40;;;;;;5070936;28;20406;-65
2020/12/05 05:23:31;;;;;;;8.97;8.10;;;6.10;46.50;;;;;;5070474;28;20190;-65
2020/12/05 05:25:58;;;;;;;8.27;7.57;;;5.90;47.40;;;;;;5070510;28;20182;-66
2020/12/05 05:28:34;;;;;;;9.43;8.63;;;5.90;47.50;;;;;;5070274;28;20280;-66
2020/12/05 05:31:28;;;;;;;8.33;7.50;;;5.80;48.20;;;;;;5070774;28;20420;-65
2020/12/05 05:33:53;;;;;;;10.00;9.00;;;5.70;48.40;;;;;;5070347;28;20424;-65
2020/12/05 05:36:38;;;;;;;9.10;8.40;;;5.90;49.30;;;;;;5070656;28;20463;-65
2020/12/05 05:39:09;;;;;;;8.57;7.67;;;6.10;48.00;;;;;;5070477;28;20755;-65
2020/12/05 05:41:39;;;;;;;9.40;8.47;;;6.40;46.40;;;;;;5070581;28;20801;-65
2020/12/05 05:44:08;;;;;;;9.13;8.07;;;6.40;46.50;;;;;;5070540;28;20917;-65
2020/12/05 05:46:42;;;;;;;8.20;7.40;;;6.50;45.90;;;;;;5070581;28;20409;-65
2020/12/05 05:49:13;;;;;;;8.90;8.07;;;6.60;46.30;;;;;;5069446;28;20456;-65
2020/12/05 05:51:54;;;;;;;8.33;7.63;;;6.60;46.10;;;;;;5069554;28;20441;-65
2020/12/05 05:54:28;;;;;;;8.17;7.50;;;6.70;45.50;;;;;;5070752;28;20482;-65
2020/12/05 05:57:02;;;;;;;9.47;8.70;;;6.50;45.30;;;;;;5070162;28;20402;-65
2020/12/05 05:59:36;;;;;;;7.67;7.10;;;6.60;46.60;;;;;;5070304;28;20405;-66
2020/12/05 06:02:04;;;;;;;8.80;8.00;;;6.80;45.30;;;;;;5070379;28;20436;-65
2020/12/05 06:04:42;;;;;;;8.27;7.47;;;7.20;43.80;;;;;;5069593;28;20781;-65
2020/12/05 06:07:13;;;;;;;8.10;7.50;;;7.20;43.90;;;;;;5073858;28;20581;-66
2020/12/05 06:09:51;;;;;;;7.17;6.47;;;7.30;43.00;;;;;;5074156;28;20445;-65
2020/12/05 06:12:35;;;;;;;8.57;7.87;;;7.00;43.30;;;;;;5072470;28;20424;-66
2020/12/05 06:15:00;;;;;;;7.70;7.10;;;6.90;43.80;;;;;;5074230;28;20478;-65
2020/12/05 06:17:26;;;;;;;7.93;7.23;;;6.80;44.60;;;;;;5073791;28;20953;-66
2020/12/05 06:19:54;;;;;;;8.50;7.70;;;6.90;44.40;;;;;;5073946;28;20221;-66
2020/12/05 06:22:40;;;;;;;7.73;7.00;;;6.70;43.70;;;;;;5073786;28;20420;-66
2020/12/05 06:25:10;;;;;;;7.57;6.87;;;6.60;45.20;;;;;;5073890;28;20470;-66
2020/12/05 06:27:41;;;;;;;7.53;6.83;;;6.70;45.40;;;;;;5073669;28;20447;-66
2020/12/05 06:30:07;;;;;;;7.13;6.53;;;6.70;44.80;;;;;;5073611;28;20451;-66
2020/12/05 06:32:38;;;;;;;6.43;5.93;;;6.70;44.70;;;;;;5072347;28;20439;-66
2020/12/05 06:35:19;;;;;;;5.77;5.33;;;6.40;46.10;;;;;;5073080;28;20431;-66
2020/12/05 06:37:45;;;;;;;5.97;5.47;;;6.70;47.20;;;;;;5073206;28;20892;-66
2020/12/05 06:40:11;;;;;;;6.63;6.13;;;6.70;45.00;;;;;;5073475;28;20776;-65
2020/12/05 06:42:42;;;;;;;5.70;5.30;;;6.90;44.90;;;;;;5073095;28;20444;-66
2020/12/05 06:45:08;;;;;;;5.90;5.40;;;7.10;45.30;;;;;;5073152;28;20175;-65
2020/12/05 06:47:34;;;;;;;5.73;5.23;;;7.20;44.80;;;;;;5072897;28;20820;-65
2020/12/05 06:50:01;;;;;;;6.13;5.63;;;7.40;44.50;;;;;;5073176;28;20417;-64
2020/12/05 06:52:26;;;;;;;6.43;5.93;;;7.40;44.30;;;;;;5073071;28;20186;-66
2020/12/05 06:54:55;;;;;;;6.10;5.60;;;7.50;45.40;;;;;;5073167;28;20429;-64
2020/12/05 06:57:23;;;;;;;5.83;5.33;;;7.60;43.50;;;;;;5072894;28;20210;-65
2020/12/05 06:59:49;;;;;;;6.10;5.60;;;7.60;44.00;;;;;;5073005;28;20406;-65
2020/12/05 07:02:31;;;;;;;5.40;5.00;;;7.70;43.90;;;;;;5073147;28;20530;-65
2020/12/05 07:05:18;;;;;;;5.73;5.30;;;7.70;42.50;;;;;;5072977;28;20965;-66
2020/12/05 07:07:48;;;;;;;6.13;5.53;;;7.70;42.90;;;;;;5072821;28;20490;-65
2020/12/05 07:10:16;;;;;;;5.77;5.33;;;7.70;43.10;;;;;;5072971;28;20404;-64
2020/12/05 07:12:43;;;;;;;5.50;5.10;;;7.70;43.40;;;;;;5073075;28;20745;-64
2020/12/05 07:15:37;;;;;;;4.57;4.27;;;7.60;42.60;;;;;;5073203;28;20437;-65
2020/12/05 07:18:03;;;;;;;6.60;5.47;;;7.80;42.90;;;;;;5063125;28;20513;-65
2020/12/05 07:20:28;;;;;;;4.33;3.93;;;7.70;43.50;;;;;;5072891;28;20816;-65
2020/12/05 07:22:55;;;;;;;4.77;4.47;;;7.50;42.20;;;;;;5072431;28;20199;-64
2020/12/05 07:25:21;;;;;;;4.37;4.07;;;7.60;43.50;;;;;;5072623;28;20183;-65
2020/12/05 07:27:48;;;;;;;3.90;3.70;;;7.70;44.20;;;;;;5072177;28;20452;-65
2020/12/05 07:30:14;;;;;;;5.23;4.80;;;7.70;43.70;;;;;;5072485;28;20934;-65
2020/12/05 07:32:41;;;;;;;4.80;4.40;;;7.70;43.60;;;;;;5072355;28;20426;-66
2020/12/05 07:35:09;;;;;;;5.40;4.27;;;7.70;44.10;;;;;;5072345;28;20183;-65
2020/12/05 07:37:35;;;;;;;4.57;4.27;;;7.60;41.60;;;;;;5072156;28;20406;-65
2020/12/05 07:40:06;;;;;;;5.70;5.20;;;7.40;41.90;;;;;;5072158;28;20431;-65
2020/12/05 07:42:36;;;;;;;5.27;4.87;;;7.50;42.90;;;;;;5072292;28;20221;-65
2020/12/05 07:45:07;;;;;;;5.43;4.93;;;7.30;42.50;;;;;;5072137;28;20406;-65
2020/12/05 07:47:33;;;;;;;4.33;4.03;;;7.10;43.90;;;;;;5071833;28;20504;-66
2020/12/05 07:49:59;;;;;;;4.50;4.10;;;6.90;44.10;;;;;;5071893;28;20498;-66
2020/12/05 07:52:25;;;;;;;4.80;4.40;;;6.90;46.00;;;;;;5072093;28;20245;-66
2020/12/05 07:55:00;;;;;;;3.93;3.63;;;7.00;46.50;;;;;;5071965;28;20956;-66
2020/12/05 07:57:30;;;;;;;3.93;3.50;;;7.00;45.10;;;;;;5071594;28;20404;-66
2020/12/05 08:00:08;;;;;;;3.43;3.20;;;7.00;48.80;;;;;;5071242;28;20414;-66
2020/12/05 08:02:33;;;;;;;2.50;2.40;;;7.20;44.60;;;;;;5070821;28;20778;-66
2020/12/05 08:05:07;;;;;;;2.67;2.47;;;7.20;44.20;;;;;;5071799;28;20398;-66
2020/12/05 08:07:38;;;;;;;4.73;2.93;;;7.10;43.80;;;;;;5067611;28;20176;-65
2020/12/05 08:10:06;;;;;;;3.77;3.47;;;7.30;43.80;;;;;;5071112;28;20467;-65
2020/12/05 08:12:48;;;;;;;3.63;3.33;;;7.40;42.80;;;;;;5071149;28;20833;-65
2020/12/05 08:15:18;;;;;;;3.53;3.23;;;7.30;43.20;;;;;;5071492;28;20441;-65
2020/12/05 08:17:45;;;;;;;4.33;4.03;;;7.50;44.00;;;;;;5070835;28;20425;-65
2020/12/05 08:20:11;;;;;;;3.83;3.50;;;7.50;43.50;;;;;;5071172;28;20463;-65
2020/12/05 08:22:37;;;;;;;3.80;3.50;;;7.40;42.50;;;;;;5070855;28;20566;-65
2020/12/05 08:25:04;;;;;;;3.97;3.67;;;7.50;44.30;;;;;;5070808;28;20410;-66
2020/12/05 08:27:30;;;;;;;4.03;3.77;;;7.60;43.60;;;;;;5070238;28;20424;-65
2020/12/05 08:29:57;;;;;;;4.30;3.90;;;7.70;43.30;;;;;;5070950;28;20410;-66
2020/12/05 08:32:24;;;;;;;4.23;3.83;;;7.80;42.50;;;;;;5070613;28;20191;-66
2020/12/05 08:34:50;;;;;;;4.93;4.53;;;7.80;42.50;;;;;;5070994;28;20398;-66
2020/12/05 08:37:25;;;;;;;4.50;4.10;;;7.80;43.70;;;;;;5070725;28;20409;-65
2020/12/05 08:39:52;;;;;;;3.80;3.50;;;7.70;42.80;;;;;;5070621;28;20409;-66
2020/12/05 08:42:18;;;;;;;3.30;3.10;;;7.70;43.50;;;;;;5070847;28;20441;-65
2020/12/05 08:44:43;;;;;;;3.97;3.70;;;7.80;42.80;;;;;;5070761;28;20421;-66
2020/12/05 08:47:09;;;;;;;4.20;3.80;;;7.70;43.60;;;;;;5070318;28;20638;-65
2020/12/05 08:49:40;;;;;;;4.10;3.70;;;7.80;44.10;;;;;;5070602;28;20215;-66
2020/12/05 08:52:06;;;;;;;3.87;3.57;;;7.90;43.70;;;;;;5069206;28;20626;-64
2020/12/05 08:54:46;;;;;;;11.87;10.87;;;7.90;44.00;;;;;;5070171;28;20497;-65
2020/12/05 08:57:13;;;;;;;111.20;69.10;;;8.00;44.00;;;;;;5070438;28;20458;-65
2020/12/05 08:59:39;;;;;;;14.47;11.50;;;8.00;43.40;;;;;;5070699;28;20431;-64
2020/12/05 09:02:05;;;;;;;7.67;6.87;;;8.00;42.20;;;;;;5070070;28;20430;-65
2020/12/05 09:04:33;;;;;;;5.23;4.73;;;8.10;42.60;;;;;;5070605;28;20432;-66
2020/12/05 09:07:12;;;;;;;4.27;3.97;;;8.10;42.00;;;;;;5070352;28;20414;-66
2020/12/05 09:09:39;;;;;;;3.50;3.30;;;8.10;42.30;;;;;;5070389;28;20503;-66
2020/12/05 09:12:14;;;;;;;4.07;3.77;;;8.20;42.60;;;;;;5070504;28;20433;-66
2020/12/05 09:14:40;;;;;;;5.20;4.13;;;8.20;42.60;;;;;;5069591;28;20409;-66
2020/12/05 09:17:30;;;;;;;16.30;11.97;;;8.30;43.80;;;;;;5070360;28;20800;-65
2020/12/05 09:20:20;;;;;;;9.90;7.73;;;8.30;43.10;;;;;;5070811;28;20405;-65
2020/12/05 09:22:52;;;;;;;5.50;4.93;;;8.10;42.50;;;;;;5045897;28;20515;-66
2020/12/05 09:25:30;;;;;;;3.63;3.33;;;8.30;42.80;;;;;;5047584;28;20476;-66
2020/12/05 09:27:56;;;;;;;4.70;4.10;;;8.30;42.20;;;;;;5049067;28;20482;-65
2020/12/05 09:30:23;;;;;;;5.97;5.47;;;8.20;42.70;;;;;;5048968;28;20411;-66
2020/12/05 09:32:50;;;;;;;4.63;4.23;;;8.20;43.20;;;;;;5049099;28;20513;-65
2020/12/05 09:35:18;;;;;;;5.50;5.07;;;8.10;43.20;;;;;;5049332;28;20418;-65
2020/12/05 09:37:44;;;;;;;5.00;4.60;;;8.10;42.90;;;;;;5049054;28;20801;-65
2020/12/05 09:40:13;;;;;;;5.00;4.50;;;8.10;42.60;;;;;;5050485;28;20509;-65
2020/12/05 09:42:40;;;;;;;5.33;4.93;;;8.10;43.00;;;;;;5053280;28;20436;-65
2020/12/05 09:45:07;;;;;;;5.30;4.90;;;8.20;43.50;;;;;;5053242;28;20414;-66
2020/12/05 09:47:33;;;;;;;5.70;5.27;;;8.20;43.00;;;;;;5052970;28;20475;-65
2020/12/05 09:49:59;;;;;;;6.53;5.17;;;8.10;43.20;;;;;;5053251;28;20770;-67
2020/12/05 09:52:24;;;;;;;6.83;5.80;;;8.20;43.10;;;;;;5052835;28;20441;-65
2020/12/05 09:54:51;;;;;;;5.83;5.33;;;8.20;43.00;;;;;;5053112;28;20164;-65
2020/12/05 09:57:16;;;;;;;5.67;5.27;;;8.10;42.80;;;;;;5052792;28;20497;-65
2020/12/05 09:59:43;;;;;;;5.53;5.13;;;8.10;42.80;;;;;;5053123;28;20517;-66
2020/12/05 10:02:09;;;;;;;5.07;4.67;;;8.20;43.40;;;;;;5052745;28;20200;-66
2020/12/05 10:04:34;;;;;;;5.67;5.17;;;8.10;42.30;;;;;;5053057;28;20414;-66
2020/12/05 10:07:00;;;;;;;6.23;5.70;;;8.00;42.80;;;;;;5052994;28;20410;-66
2020/12/05 10:09:25;;;;;;;5.57;5.13;;;7.80;43.70;;;;;;5052578;28;20227;-66
2020/12/05 10:11:51;;;;;;;5.80;5.30;;;7.90;43.40;;;;;;5052701;28;20195;-66
2020/12/05 10:14:17;;;;;;;5.67;5.13;;;8.00;44.30;;;;;;5052843;28;20164;-66
2020/12/05 10:16:42;;;;;;;15.57;13.97;;;7.90;43.20;;;;;;5065398;28;20183;-66
2020/12/05 10:19:08;;;;;;;35.67;24.87;;;7.70;44.00;;;;;;5072842;28;20322;-66
2020/12/05 10:21:33;;;;;;;13.90;9.23;;;7.80;43.50;;;;;;5072442;28;20673;-66
2020/12/05 10:23:59;;;;;;;5.03;4.53;;;7.80;43.40;;;;;;5072425;28;20195;-66
2020/12/05 10:26:24;;;;;;;4.47;4.07;;;7.70;43.10;;;;;;5072550;28;20650;-65
2020/12/05 10:28:50;;;;;;;5.53;4.70;;;7.70;43.80;;;;;;5072239;28;20211;-65
2020/12/05 10:31:15;;;;;;;4.90;4.50;;;7.80;42.90;;;;;;5065935;28;20203;-65
2020/12/05 10:33:41;;;;;;;11.70;5.60;;;7.90;42.90;;;;;;5052249;28;20175;-65
2020/12/05 10:36:06;;;;;;;6.87;6.17;;;8.20;43.80;;;;;;5070971;28;20193;-65
2020/12/05 10:38:32;;;;;;;6.00;5.50;;;8.20;43.20;;;;;;5071896;28;20646;-65
2020/12/05 10:40:57;;;;;;;9.57;5.47;;;8.20;42.30;;;;;;5072021;28;20630;-65
2020/12/05 10:43:23;;;;;;;7.13;6.53;;;7.70;43.30;;;;;;5072333;28;20171;-65
2020/12/05 10:45:49;;;;;;;6.57;5.97;;;7.80;43.70;;;;;;5072033;28;20635;-65
2020/12/05 10:48:14;;;;;;;6.87;6.27;;;7.70;43.30;;;;;;5071962;28;20191;-66
2020/12/05 10:50:40;;;;;;;6.63;6.13;;;8.00;43.50;;;;;;5071754;28;20195;-66
2020/12/05 10:53:06;;;;;;;6.40;5.80;;;7.70;43.10;;;;;;5071959;28;20184;-66
2020/12/05 10:55:31;;;;;;;7.23;6.53;;;7.80;43.10;;;;;;5072098;28;20172;-66
2020/12/05 10:57:57;;;;;;;6.13;5.53;;;7.70;43.10;;;;;;5071693;28;20176;-66
2020/12/05 11:00:23;;;;;;;8.73;8.03;;;7.80;43.20;;;;;;5071892;28;20180;-66
2020/12/05 11:02:49;;;;;;;11.30;6.50;;;7.80;43.20;;;;;;5071846;28;20237;-66
2020/12/05 11:05:14;;;;;;;7.30;6.70;;;7.90;42.50;;;;;;5071840;28;20437;-66
2020/12/05 11:07:40;;;;;;;7.33;6.80;;;8.00;42.20;;;;;;5071436;28;20183;-66
2020/12/05 11:10:06;;;;;;;7.47;6.87;;;7.90;43.30;;;;;;5071505;28;20152;-65
2020/12/05 11:12:31;;;;;;;7.40;6.73;;;8.00;43.00;;;;;;5071713;28;20688;-65
2020/12/05 11:14:57;;;;;;;7.13;6.53;;;7.90;42.70;;;;;;5071703;28;20175;-65
2020/12/05 11:17:22;;;;;;;5.90;5.50;;;8.00;43.30;;;;;;5053229;28;20234;-66
2020/12/05 11:19:48;;;;;;;6.67;6.07;;;7.70;43.00;;;;;;5051515;28;20172;-66
2020/12/05 11:22:13;;;;;;;6.40;5.80;;;7.80;42.80;;;;;;5051002;28;20700;-66
2020/12/05 11:24:39;;;;;;;6.23;5.73;;;7.90;42.80;;;;;;5051383;28;20287;-66
2020/12/05 11:27:04;;;;;;;5.73;5.23;;;8.10;41.50;;;;;;5051203;28;20172;-66
2020/12/05 11:29:30;;;;;;;5.53;5.13;;;8.20;42.50;;;;;;5051243;28;20560;-66
2020/12/05 11:31:55;;;;;;;6.60;6.03;;;8.40;41.30;;;;;;5050968;28;20192;-67
2020/12/05 11:34:21;;;;;;;7.10;5.80;;;8.50;41.20;;;;;;5051137;28;20203;-67
2020/12/05 11:36:47;;;;;;;7.40;6.80;;;8.60;41.40;;;;;;5051334;28;20171;-66
2020/12/05 11:39:13;;;;;;;6.60;6.10;;;8.60;41.20;;;;;;5051070;28;20191;-66
2020/12/05 11:41:38;;;;;;;6.20;5.70;;;8.60;41.40;;;;;;5050971;28;20430;-66
2020/12/05 11:44:04;;;;;;;12.20;11.13;;;8.70;39.90;;;;;;5051214;28;20260;-66
2020/12/05 11:46:30;;;;;;;6.73;6.13;;;8.70;39.70;;;;;;5070148;28;20539;-66
2020/12/05 11:48:56;;;;;;;6.43;5.93;;;8.50;39.80;;;;;;5070047;28;20453;-66
2020/12/05 11:51:25;;;;;;;6.50;5.93;;;8.70;40.50;;;;;;5071358;28;21106;-66
2020/12/05 11:53:51;;;;;;;7.53;6.93;;;8.60;41.20;;;;;;5070964;28;20164;-65
2020/12/05 11:56:17;;;;;;;8.80;7.93;;;8.60;41.40;;;;;;5071998;28;20455;-65
2020/12/05 11:58:43;;;;;;;7.47;6.90;;;8.70;40.30;;;;;;5071873;28;20183;-66
2020/12/05 12:01:08;;;;;;;6.67;6.07;;;8.70;41.10;;;;;;5071836;28;20207;-66
2020/12/05 12:03:34;;;;;;;6.10;5.70;;;8.80;41.00;;;;;;5071019;28;20178;-66
2020/12/05 12:06:00;;;;;;;8.20;7.40;;;8.90;40.30;;;;;;5071721;28;20179;-66
2020/12/05 12:08:26;;;;;;;8.70;7.90;;;8.90;41.10;;;;;;5071521;28;20203;-67
2020/12/05 12:10:51;;;;;;;7.77;7.13;;;8.90;40.30;;;;;;5071476;28;20417;-66
2020/12/05 12:13:17;;;;;;;8.00;6.63;;;8.90;40.90;;;;;;5071572;28;20538;-66
2020/12/05 12:15:42;;;;;;;6.73;6.23;;;8.70;40.90;;;;;;5071618;28;20167;-66
2020/12/05 12:18:13;;;;;;;8.50;7.70;;;8.90;41.70;;;;;;5071378;28;20171;-65
2020/12/05 12:20:38;;;;;;;8.17;7.47;;;8.90;40.90;;;;;;5071564;28;20167;-66
2020/12/05 12:23:04;;;;;;;8.10;7.40;;;8.90;41.70;;;;;;5071321;28;20804;-66
2020/12/05 12:25:29;;;;;;;8.90;8.00;;;8.90;41.20;;;;;;5071362;28;20198;-66
2020/12/05 12:27:55;;;;;;;8.67;7.87;;;8.90;41.30;;;;;;5071105;28;20838;-66
2020/12/05 12:30:20;;;;;;;8.10;7.50;;;8.90;40.80;;;;;;5071312;28;20163;-66
2020/12/05 12:32:46;;;;;;;8.00;7.27;;;8.80;41.60;;;;;;5071153;28;20214;-66
2020/12/05 12:35:12;;;;;;;9.17;7.63;;;9.00;41.20;;;;;;5071227;28;20172;-66
2020/12/05 12:37:37;;;;;;;9.27;8.40;;;9.10;41.00;;;;;;5070971;28;20221;-66
2020/12/05 12:40:04;;;;;;;14.17;12.70;;;9.00;40.80;;;;;;5071253;28;20258;-66
2020/12/05 12:42:31;;;;;;;19.50;17.30;;;9.00;41.20;;;;;;5071226;28;20544;-66
2020/12/05 12:44:57;;;;;;;8.63;7.87;;;9.00;41.70;;;;;;5071052;28;20496;-66
2020/12/05 12:47:46;;;;;;;8.73;8.03;;;9.00;40.80;;;;;;5070998;28;20497;-66
2020/12/05 12:50:11;;;;;;;7.70;6.93;;;9.10;41.20;;;;;;5070858;28;20179;-66
2020/12/05 12:52:36;;;;;;;7.97;7.37;;;9.10;39.80;;;;;;5070903;28;20785;-66